Time;durP1;ratioP1;P1;durP2;ratioP2;P2;SDS_P1;SDS_P2;PMS_P1;PMS_P2;Temp;Humidity;BMP_temperature;BMP_pressure;BME280_temperature;BME280_humidity;BME280_pressure;Samples;Min_cycle;Max_cycle;Signal;HPM_P1;HPM_P2
2022/02/11 00:04:10;;;;;;;13.48;8.40;;;;;;;5.49;67.57;100637.89;1777012;79;22015;-55
2022/02/11 00:09:16;;;;;;;11.35;8.23;;;;;;;5.40;67.90;100637.45;1797007;79;22448;-55
2022/02/11 00:11:42;;;;;;;12.93;8.23;;;;;;;5.37;68.19;100642.01;1794045;79;21090;-55
2022/02/11 00:14:09;;;;;;;12.88;8.63;;;;;;;5.38;68.46;100636.70;1811161;78;21043;-55
2022/02/11 00:16:38;;;;;;;14.63;8.40;;;;;;;5.44;68.56;100629.00;1802361;78;21091;-55
2022/02/11 00:19:06;;;;;;;15.60;9.40;;;;;;;5.48;68.71;100625.31;1789112;78;21133;-55
2022/02/11 00:21:33;;;;;;;16.30;9.78;;;;;;;5.50;68.83;100625.23;1779013;78;21083;-55
2022/02/11 00:24:01;;;;;;;12.68;8.33;;;;;;;5.48;68.95;100627.92;1790061;78;21069;-55
2022/02/11 00:26:34;;;;;;;13.85;8.38;;;;;;;5.45;69.05;100623.34;1789197;78;21070;-55
2022/02/11 00:31:58;;;;;;;12.93;8.53;;;;;;;5.40;69.29;100625.72;1774005;80;21540;-55
2022/02/11 00:34:16;;;;;;;13.93;8.33;;;;;;;5.35;69.41;100619.91;1780647;79;21014;-54
2022/02/11 00:36:58;;;;;;;13.62;7.72;;;;;;;5.36;69.42;100623.34;1781762;78;21602;-54
2022/02/11 01:03:49;;;;;;;15.75;9.13;;;;;;;5.29;69.20;100589.39;1805484;78;21178;-55
2022/02/11 01:05:58;;;;;;;18.32;9.53;;;;;;;5.30;69.10;100585.39;1808027;78;21034;-55
2022/02/11 01:08:24;;;;;;;14.58;8.50;;;;;;;5.28;69.09;100582.03;1805096;78;21089;-55
2022/02/11 01:10:50;;;;;;;16.87;10.28;;;;;;;5.26;69.15;100583.03;1801372;78;21008;-55
2022/02/11 01:13:18;;;;;;;12.98;8.70;;;;;;;5.24;69.21;100583.11;1780663;78;21093;-55
2022/02/11 01:15:53;;;;;;;13.50;8.55;;;;;;;5.25;69.19;100582.20;1782327;79;21073;-55
2022/02/11 01:18:15;;;;;;;12.50;8.40;;;;;;;5.25;69.11;100589.19;1808108;77;21128;-55
2022/02/11 01:21:08;;;;;;;15.80;10.18;;;;;;;5.24;68.97;100583.11;1782124;79;21171;-55
2022/02/11 01:23:35;;;;;;;17.65;8.93;;;;;;;5.30;68.85;100572.34;1779733;79;21047;-55
2022/02/11 01:28:50;;;;;;;16.30;9.08;;;;;;;5.44;68.63;100582.02;1784124;79;21038;-55
2022/02/11 01:31:17;;;;;;;13.45;8.05;;;;;;;5.44;68.69;100579.41;1768954;78;21099;-57
2022/02/11 01:54:33;;;;;;;12.47;6.85;;;;;;;5.46;67.88;100560.59;1804099;78;21097;-55
2022/02/11 02:15:07;;;;;;;13.43;7.28;;;;;;;5.25;67.67;100537.02;1783639;79;21156;-56
2022/02/11 02:24:57;;;;;;;17.25;7.28;;;;;;;5.36;67.10;100525.05;1766054;79;21131;-55
2022/02/11 02:57:04;;;;;;;9.83;6.33;;;;;;;5.43;65.87;100482.93;1757876;79;21065;-54
2022/02/11 03:02:06;;;;;;;14.75;6.55;;;;;;;5.40;65.81;100470.44;1858991;75;22037;-55
2022/02/11 03:14:39;;;;;;;11.65;6.83;;;;;;;5.45;65.64;100466.75;1840781;76;21094;-54
2022/02/11 03:15:44;;;;;;;12.03;6.67;;;;;;;5.63;64.97;100476.12;1839351;76;21112;-54
2022/02/11 03:56:57;;;;;;;12.28;6.55;;;;;;;5.59;64.31;100425.01;1835312;77;21038;-54
2022/02/11 03:59:35;;;;;;;10.65;5.90;;;;;;;5.63;64.12;100420.00;1834672;77;21033;-55
2022/02/11 04:55:24;;;;;;;12.88;6.97;;;;;;;5.02;64.98;100384.75;1784337;79;21483;-56
2022/02/11 05:00:38;;;;;;;10.43;6.28;;;;;;;4.98;64.94;100383.27;1772345;79;21229;-55
2022/02/11 05:03:04;;;;;;;11.57;7.00;;;;;;;4.89;65.02;100385.07;1760008;80;21462;-54
2022/02/11 05:05:48;;;;;;;11.93;6.33;;;;;;;4.84;65.13;100379.27;1756586;81;21514;-55
2022/02/11 05:08:03;;;;;;;11.12;7.22;;;;;;;4.81;65.22;100379.48;1757010;81;21111;-56
2022/02/11 05:10:27;;;;;;;10.82;6.92;;;;;;;4.79;65.25;100378.70;1756443;80;21105;-53
2022/02/11 05:12:54;;;;;;;10.15;7.17;;;;;;;4.76;65.35;100381.50;1755903;79;21066;-52
2022/02/11 05:15:23;;;;;;;12.58;6.30;;;;;;;4.79;65.33;100379.56;1758890;80;21142;-53
2022/02/11 05:17:51;;;;;;;12.28;6.58;;;;;;;4.87;65.20;100384.33;1755688;80;21423;-53
2022/02/11 05:20:17;;;;;;;11.05;6.47;;;;;;;4.92;65.12;100390.59;1761900;79;21116;-53
2022/02/11 05:22:44;;;;;;;12.60;7.30;;;;;;;4.93;65.03;100377.95;1762165;79;21109;-52
2022/02/11 05:25:10;;;;;;;12.28;7.45;;;;;;;4.94;65.02;100379.61;1756546;80;21073;-53
2022/02/11 05:27:48;;;;;;;;;;;;;;;;;;;;;
2022/02/11 05:52:02;;;;;;;9.25;5.90;;;;;;;6.00;61.18;100358.20;1874355;74;23278;-53
2022/02/11 05:54:29;;;;;;;10.48;6.10;;;;;;;5.83;61.42;100363.95;1845319;75;22323;-55
2022/02/11 05:56:56;;;;;;;13.80;7.40;;;;;;;5.73;61.50;100351.95;1842986;76;21786;-56
2022/02/11 05:59:22;;;;;;;10.75;6.15;;;;;;;5.69;61.65;100349.60;1842852;75;21689;-56
2022/02/11 06:01:49;;;;;;;11.05;6.35;;;;;;;5.64;61.84;100339.43;1831864;75;21363;-54
2022/02/11 06:04:16;;;;;;;10.08;5.60;;;;;;;5.61;61.83;100343.52;1812023;77;21111;-55
2022/02/11 06:06:42;;;;;;;12.37;7.17;;;;;;;5.57;61.97;100340.27;1813732;75;21259;-53
2022/02/11 06:09:10;;;;;;;11.45;6.45;;;;;;;5.56;61.90;100339.05;1843699;75;21200;-53
2022/02/11 06:11:36;;;;;;;9.88;6.55;;;;;;;5.56;61.94;100349.48;1821807;76;21033;-53
2022/02/11 06:14:03;;;;;;;12.05;5.90;;;;;;;5.61;61.85;100356.58;1845536;75;21042;-53
2022/02/11 06:16:30;;;;;;;9.78;5.67;;;;;;;5.70;61.68;100359.95;1838449;75;21109;-54
2022/02/11 06:18:58;;;;;;;9.83;5.35;;;;;;;5.78;61.59;100359.48;1840653;76;21018;-54
2022/02/11 06:21:25;;;;;;;9.88;5.53;;;;;;;5.82;61.44;100367.99;1824242;77;21061;-54
2022/02/11 06:23:55;;;;;;;10.38;5.53;;;;;;;5.83;61.33;100377.48;1846589;76;21052;-54
2022/02/11 06:26:19;;;;;;;10.18;5.37;;;;;;;5.80;61.17;100375.92;1849498;75;21152;-52
2022/02/11 06:28:46;;;;;;;9.15;5.42;;;;;;;5.77;61.14;100383.45;1820249;77;21388;-53
2022/02/11 06:31:13;;;;;;;9.10;5.42;;;;;;;5.71;61.23;100368.63;1841955;75;21088;-53
2022/02/11 06:33:40;;;;;;;8.93;5.33;;;;;;;5.71;61.33;100372.06;1843881;75;21676;-53
2022/02/11 06:36:06;;;;;;;12.25;6.12;;;;;;;5.71;61.43;100365.53;1846145;76;21026;-54
2022/02/11 06:38:34;;;;;;;10.05;6.03;;;;;;;5.72;61.50;100365.09;1814110;77;21054;-54
2022/02/11 06:41:01;;;;;;;9.33;5.83;;;;;;;5.75;61.40;100359.69;1844123;75;21057;-52
2022/02/11 06:43:27;;;;;;;10.98;6.00;;;;;;;5.78;61.39;100369.92;1843585;75;21037;-53
2022/02/11 06:45:53;;;;;;;9.53;5.28;;;;;;;5.83;61.24;100368.34;1853293;75;21195;-53
2022/02/11 06:48:23;;;;;;;10.72;6.05;;;;;;;5.93;61.04;100359.88;1804333;76;21105;-53
2022/02/11 06:50:48;;;;;;;9.85;6.17;;;;;;;6.03;60.82;100356.24;1836127;75;21046;-56
2022/02/11 06:53:15;;;;;;;11.50;4.90;;;;;;;6.06;60.83;100362.59;1844893;75;21080;-53
2022/02/11 06:55:42;;;;;;;9.68;4.87;;;;;;;6.09;60.73;100359.80;1852730;75;21005;-53
2022/02/11 06:58:10;;;;;;;10.08;5.85;;;;;;;6.14;60.63;100376.02;1853153;76;21077;-51
2022/02/11 07:00:39;;;;;;;8.43;5.45;;;;;;;6.15;60.44;100363.79;1846787;75;21059;-54
2022/02/11 07:03:05;;;;;;;12.00;5.65;;;;;;;6.17;60.41;100362.39;1850697;75;21115;-54
2022/02/11 07:05:37;;;;;;;8.83;5.15;;;;;;;6.16;60.39;100357.64;1823202;76;21116;-53
2022/02/11 07:08:05;;;;;;;10.08;5.37;;;;;;;6.16;60.64;100354.20;1813976;77;21112;-61
2022/02/11 07:10:32;;;;;;;8.40;4.95;;;;;;;6.16;60.56;100351.11;1794094;78;21073;-73
2022/02/11 07:13:00;;;;;;;8.33;5.17;;;;;;;6.18;60.68;100347.09;1783351;78;21108;-66
2022/02/11 07:15:26;;;;;;;10.40;5.70;;;;;;;6.21;60.54;100352.14;1791235;78;21639;-66
2022/02/11 07:17:54;;;;;;;11.10;5.72;;;;;;;6.22;60.58;100357.27;1794775;78;21033;-67
2022/02/11 07:20:21;;;;;;;9.45;4.80;;;;;;;6.28;60.60;100358.17;1766774;79;21470;-71
2022/02/11 07:22:49;;;;;;;9.90;5.37;;;;;;;6.38;60.41;100349.30;1768096;79;21049;-67
2022/02/11 07:25:15;;;;;;;10.65;4.87;;;;;;;6.49;60.35;100360.40;1793146;78;21113;-73
2022/02/11 07:27:44;;;;;;;8.58;5.20;;;;;;;6.55;60.13;100351.31;1791247;78;21112;-73
2022/02/11 07:30:12;;;;;;;12.90;5.60;;;;;;;6.58;60.02;100349.81;1761746;79;21465;-69
2022/02/11 07:32:38;;;;;;;8.58;5.40;;;;;;;6.62;59.95;100358.69;1783814;78;21151;-62
2022/02/11 07:35:06;;;;;;;11.18;5.65;;;;;;;6.65;59.89;100369.40;1786256;78;21199;-71
2022/02/11 07:37:35;;;;;;;9.30;6.15;;;;;;;6.65;59.78;100364.17;1786776;78;21077;-72
2022/02/11 07:40:02;;;;;;;12.55;6.45;;;;;;;6.66;59.91;100363.24;1792029;78;21068;-69
2022/02/11 07:42:32;;;;;;;9.95;5.78;;;;;;;6.67;59.88;100370.13;1765217;78;21119;-68
2022/02/11 07:44:59;;;;;;;8.83;5.25;;;;;;;6.67;59.97;100357.92;1764696;79;21477;-71
2022/02/11 07:47:29;;;;;;;9.88;5.40;;;;;;;6.70;60.04;100364.71;1790878;78;21112;-70
2022/02/11 07:49:56;;;;;;;9.85;5.85;;;;;;;6.73;60.11;100355.36;1789459;78;21548;-72
2022/02/11 07:52:22;;;;;;;11.45;5.22;;;;;;;6.77;60.03;100362.06;1780465;78;21652;-72
2022/02/11 07:54:49;;;;;;;12.90;5.30;;;;;;;6.88;60.08;100358.29;1773305;80;21160;-71
2022/02/11 07:57:16;;;;;;;9.65;5.45;;;;;;;7.04;59.58;100360.77;1754875;80;21593;-68
2022/02/11 07:59:44;;;;;;;12.82;5.65;;;;;;;7.20;59.45;100355.34;1776965;79;21100;-72
2022/02/11 08:02:11;;;;;;;13.28;6.08;;;;;;;7.30;59.16;100354.74;1777823;78;21527;-72
2022/02/11 08:04:38;;;;;;;9.13;6.00;;;;;;;7.41;59.07;100350.91;1748669;80;21723;-67
2022/02/11 08:07:05;;;;;;;10.50;6.00;;;;;;;7.51;58.90;100349.34;1759710;80;21086;-70
2022/02/11 08:09:31;;;;;;;14.85;6.85;;;;;;;7.63;58.82;100351.59;1761905;79;21136;-70
2022/02/11 08:11:58;;;;;;;12.73;6.60;;;;;;;7.73;58.56;100351.36;1773835;78;21482;-66
2022/02/11 08:14:25;;;;;;;10.00;6.17;;;;;;;7.86;58.48;100357.06;1775147;78;21081;-68
2022/02/11 08:16:52;;;;;;;12.88;6.55;;;;;;;7.95;58.19;100359.02;1786129;78;21045;-68
2022/02/11 08:19:19;;;;;;;12.15;6.80;;;;;;;8.03;57.94;100364.58;1779507;79;21096;-68
2022/02/11 08:21:46;;;;;;;9.55;6.03;;;;;;;8.10;57.35;100356.67;1757718;80;21630;-68
2022/02/11 08:24:14;;;;;;;12.50;6.03;;;;;;;8.14;57.41;100354.67;1783921;79;21955;-68
2022/02/11 08:26:41;;;;;;;10.70;6.53;;;;;;;8.19;57.28;100364.36;1778856;78;21076;-67
2022/02/11 08:29:09;;;;;;;10.32;6.78;;;;;;;8.19;57.00;100363.88;1785409;78;21611;-73
2022/02/11 08:31:36;;;;;;;9.55;6.10;;;;;;;8.16;57.10;100361.95;1758770;79;21045;-67
2022/02/11 08:34:06;;;;;;;10.32;6.33;;;;;;;8.12;57.17;100361.33;1752602;78;21077;-67
2022/02/11 08:36:38;;;;;;;;;;;;;;;8.09;57.46;100365.95;1778042;78;21818;-62
2022/02/11 08:39:06;;;;;;;10.05;6.12;;;;;;;8.07;57.56;100362.58;1766494;80;20262;-63
2022/02/11 08:41:33;;;;;;;11.43;7.42;;;;;;;8.02;57.75;100375.16;1770462;80;20995;-62
2022/02/11 08:43:59;;;;;;;9.60;6.05;;;;;;;7.96;57.95;100378.58;1760547;79;21076;-67
2022/02/11 08:46:27;;;;;;;10.20;6.40;;;;;;;7.94;57.92;100378.33;1770333;80;21086;-67
2022/02/11 08:48:54;;;;;;;14.03;6.67;;;;;;;7.91;57.77;100387.70;1765812;80;21551;-62
2022/02/11 08:51:20;;;;;;;12.68;7.58;;;;;;;7.86;57.85;100381.47;1769037;79;21017;-66
2022/02/11 08:53:51;;;;;;;12.55;7.12;;;;;;;7.80;57.85;100383.19;1754032;80;21129;-68
2022/02/11 08:56:16;;;;;;;14.03;6.75;;;;;;;7.76;58.07;100381.25;1789195;78;21109;-64
2022/02/11 08:58:42;;;;;;;8.98;6.72;;;;;;;7.75;58.15;100393.14;1785975;78;21119;-61
2022/02/11 09:01:08;;;;;;;10.18;6.12;;;;;;;7.74;58.25;100409.81;1800875;77;21112;-63
2022/02/11 09:03:35;;;;;;;10.35;6.47;;;;;;;7.72;58.18;100406.47;1798789;78;21046;-61
2022/02/11 09:06:05;;;;;;;10.75;6.85;;;;;;;7.72;58.33;100401.23;1754171;79;21060;-67
2022/02/11 09:08:34;;;;;;;11.38;6.55;;;;;;;7.75;58.16;100417.58;1802304;78;21038;-64
2022/02/11 09:11:05;;;;;;;11.53;6.90;;;;;;;7.89;58.19;100411.88;1757256;80;21065;-63
2022/02/11 09:13:31;;;;;;;13.45;6.72;;;;;;;7.95;57.97;100410.98;1787487;78;21809;-62
2022/02/11 09:15:58;;;;;;;10.72;6.47;;;;;;;7.98;57.89;100413.84;1777722;78;21029;-61
2022/02/11 09:18:25;;;;;;;12.35;6.65;;;;;;;8.02;57.97;100411.84;1794006;78;21147;-62
2022/02/11 09:20:52;;;;;;;15.43;9.20;;;;;;;8.04;57.88;100406.05;1753749;80;21070;-62
2022/02/11 09:23:20;;;;;;;14.35;7.97;;;;;;;8.04;57.99;100416.53;1803083;78;21083;-65
2022/02/11 09:25:46;;;;;;;12.50;6.85;;;;;;;8.03;58.08;100415.67;1771534;79;21668;-66
2022/02/11 09:28:13;;;;;;;12.93;7.55;;;;;;;8.00;58.08;100406.71;1773321;78;21548;-62
2022/02/11 09:30:41;;;;;;;13.15;8.43;;;;;;;8.00;58.26;100400.16;1807973;77;21063;-62
2022/02/11 09:33:08;;;;;;;13.05;7.10;;;;;;;7.98;58.28;100409.91;1810299;77;21546;-60
2022/02/11 09:35:35;;;;;;;14.07;8.13;;;;;;;7.94;58.49;100405.36;1803201;77;21046;-66
2022/02/11 09:38:02;;;;;;;12.10;8.03;;;;;;;7.91;58.71;100412.12;1780632;79;21201;-65
2022/02/11 09:40:28;;;;;;;13.15;8.28;;;;;;;7.87;58.90;100425.52;1778208;78;21580;-68
2022/02/11 09:42:56;;;;;;;13.60;8.80;;;;;;;7.78;59.14;100407.34;1750472;80;21573;-65
2022/02/11 09:45:24;;;;;;;16.17;8.05;;;;;;;7.78;59.41;100406.89;1754081;80;21115;-68
2022/02/11 09:47:51;;;;;;;13.05;7.85;;;;;;;7.80;59.47;100411.55;1780683;79;21058;-66
2022/02/11 09:50:20;;;;;;;12.75;7.85;;;;;;;7.88;59.30;100408.39;1773402;79;21186;-64
2022/02/11 09:52:52;;;;;;;16.75;8.35;;;;;;;7.99;58.92;100413.74;1779824;79;20998;-68
2022/02/11 09:55:41;;;;;;;18.70;9.73;;;;;;;8.05;58.85;100406.40;1753193;78;21070;-63
2022/02/11 09:58:15;;;;;;;17.32;12.98;;;;;;;8.10;58.79;100400.36;1784509;79;21075;-68
2022/02/11 10:00:44;;;;;;;14.18;8.90;;;;;;;8.14;58.55;100402.67;1781107;78;21157;-65
2022/02/11 10:03:24;;;;;;;16.67;9.10;;;;;;;8.13;58.45;100404.92;1778843;79;21099;-63
2022/02/11 10:06:02;;;;;;;15.18;8.75;;;;;;;8.10;58.66;100397.30;1758907;79;21544;-69
2022/02/11 10:08:32;;;;;;;13.55;7.78;;;;;;;8.09;58.82;100403.95;1807423;77;22532;-63
2022/02/11 10:10:59;;;;;;;14.30;8.93;;;;;;;8.06;58.84;100404.16;1800353;78;21067;-68
2022/02/11 10:13:32;;;;;;;13.35;8.28;;;;;;;8.04;59.02;100416.05;1761603;79;21104;-62
2022/02/11 10:16:08;;;;;;;15.00;8.38;;;;;;;8.05;59.09;100410.33;1771428;78;21123;-64
2022/02/11 10:18:42;;;;;;;14.98;9.25;;;;;;;8.06;59.29;100413.33;1759343;79;21141;-66
2022/02/11 10:21:12;;;;;;;12.73;7.37;;;;;;;8.09;59.12;100422.30;1794952;78;21120;-61
2022/02/11 10:23:41;;;;;;;15.50;9.10;;;;;;;8.08;59.37;100417.50;1805130;78;21072;-63
2022/02/11 10:26:15;;;;;;;14.53;8.90;;;;;;;8.11;59.33;100421.71;1786536;78;21555;-68
2022/02/11 10:28:55;;;;;;;11.50;8.25;;;;;;;8.14;59.23;100424.13;1780756;78;21037;-64
2022/02/11 10:31:31;;;;;;;13.93;8.70;;;;;;;8.17;59.31;100443.09;1778519;78;21050;-64
2022/02/11 10:34:03;;;;;;;13.98;8.95;;;;;;;8.22;59.06;100434.06;1812223;77;21063;-60
2022/02/11 10:36:34;;;;;;;16.30;9.25;;;;;;;8.26;59.05;100436.38;1803292;78;21058;-67
2022/02/11 10:39:21;;;;;;;16.10;9.25;;;;;;;8.30;58.98;100442.23;1789564;78;21057;-67
2022/02/11 10:41:53;;;;;;;15.08;8.40;;;;;;;8.28;58.97;100448.89;1796708;78;21130;-64
2022/02/11 10:44:22;;;;;;;13.38;8.68;;;;;;;8.24;59.09;100449.20;1780616;78;21639;-68
2022/02/11 10:46:50;;;;;;;14.63;8.53;;;;;;;8.19;59.29;100456.09;1794188;78;21045;-65
2022/02/11 10:49:18;;;;;;;14.63;9.85;;;;;;;8.17;59.18;100464.55;1788939;79;21052;-67
2022/02/11 10:51:48;;;;;;;16.55;9.90;;;;;;;8.04;59.73;100457.16;1786053;78;21069;-68
2022/02/11 10:54:30;;;;;;;16.67;10.03;;;;;;;7.98;59.88;100459.25;1775337;80;21050;-65
2022/02/11 10:57:01;;;;;;;13.65;8.73;;;;;;;7.96;60.05;100460.28;1768833;79;21012;-68
2022/02/11 10:59:32;;;;;;;17.37;9.75;;;;;;;7.92;60.24;100457.03;1749118;79;21049;-66
2022/02/11 11:02:09;;;;;;;15.43;8.60;;;;;;;7.94;60.39;100462.17;1772282;79;21064;-68
2022/02/11 11:04:36;;;;;;;13.88;9.53;;;;;;;7.98;60.42;100457.94;1779631;80;21027;-67
2022/02/11 11:07:06;;;;;;;13.85;8.65;;;;;;;8.04;60.44;100463.70;1745040;79;21054;-62
2022/02/11 11:09:36;;;;;;;17.90;9.50;;;;;;;8.04;60.51;100448.81;1764159;79;21172;-69
2022/02/11 11:12:04;;;;;;;14.28;8.05;;;;;;;8.07;60.45;100454.30;1779003;79;21050;-64
2022/02/11 11:14:32;;;;;;;12.70;8.28;;;;;;;8.06;60.44;100457.40;1776700;79;21029;-65
2022/02/11 11:17:01;;;;;;;14.68;7.97;;;;;;;8.06;60.57;100453.95;1750732;80;21064;-66
2022/02/11 11:19:35;;;;;;;15.30;9.68;;;;;;;8.05;60.62;100459.64;1773648;79;22148;-67
2022/02/11 11:22:11;;;;;;;14.07;9.15;;;;;;;8.07;60.60;100457.78;1750121;79;21427;-65
2022/02/11 11:24:53;;;;;;;13.48;9.05;;;;;;;8.09;60.46;100455.88;1743670;79;21109;-69
2022/02/11 11:27:40;;;;;;;14.63;9.23;;;;;;;8.08;60.57;100452.05;1751749;80;21094;-70
2022/02/11 11:30:30;;;;;;;17.95;9.53;;;;;;;8.07;60.60;100460.84;1769473;79;21031;-65
2022/02/11 11:33:12;;;;;;;13.75;8.65;;;;;;;8.01;60.70;100468.67;1741292;80;21031;-70
2022/02/11 11:35:49;;;;;;;14.18;9.65;;;;;;;8.02;60.80;100465.12;1771212;79;21513;-68
2022/02/11 11:38:25;;;;;;;15.10;9.00;;;;;;;8.10;60.65;100462.81;1768760;79;21124;-70
2022/02/11 11:41:23;;;;;;;14.68;8.63;;;;;;;8.16;60.65;100466.79;1769504;79;21058;-68
2022/02/11 11:44:00;;;;;;;14.53;9.28;;;;;;;8.21;60.52;100475.17;1774897;79;21101;-70
2022/02/11 11:46:30;;;;;;;16.70;9.15;;;;;;;8.16;60.48;100466.30;1750115;80;21759;-72
2022/02/11 11:49:13;;;;;;;14.47;9.03;;;;;;;8.12;60.80;100465.30;1718897;80;21047;-69
2022/02/11 11:51:48;;;;;;;19.30;9.10;;;;;;;8.15;60.75;100469.03;1778814;78;21052;-67
2022/02/11 11:54:22;;;;;;;17.15;10.18;;;;;;;8.14;60.83;100460.81;1784031;79;20991;-64
2022/02/11 11:56:58;;;;;;;14.43;8.65;;;;;;;8.16;60.94;100472.03;1809116;78;21055;-66
2022/02/11 11:59:42;;;;;;;14.53;8.65;;;;;;;8.26;60.81;100471.76;1757101;78;21505;-66
2022/02/11 12:02:23;;;;;;;16.05;9.28;;;;;;;8.36;60.29;100470.17;1754646;78;21016;-60
2022/02/11 12:04:54;;;;;;;14.98;9.83;;;;;;;8.41;60.23;100480.83;1775249;79;21053;-60
2022/02/11 12:07:28;;;;;;;15.50;9.70;;;;;;;8.42;60.22;100475.94;1760839;79;21071;-62
2022/02/11 12:09:56;;;;;;;14.18;8.45;;;;;;;8.44;60.02;100479.31;1787885;78;21355;-60
2022/02/11 12:12:28;;;;;;;15.38;8.85;;;;;;;8.45;60.01;100479.70;1773852;78;21121;-61
2022/02/11 12:15:02;;;;;;;15.32;8.33;;;;;;;8.49;60.05;100481.14;1784426;78;21237;-61
2022/02/11 12:17:29;;;;;;;15.13;8.75;;;;;;;8.49;59.85;100479.83;1785145;78;21715;-62
2022/02/11 12:19:57;;;;;;;15.98;9.18;;;;;;;8.48;59.77;100492.59;1783379;78;21084;-60
2022/02/11 12:22:28;;;;;;;13.03;8.15;;;;;;;8.45;59.40;100487.56;1799912;78;20995;-61
2022/02/11 12:27:43;;;;;;;14.05;7.83;;;;;;;8.43;59.35;100493.39;1812734;77;21057;-61
2022/02/11 12:30:24;;;;;;;13.55;8.73;;;;;;;8.47;59.24;100499.64;1810542;78;21615;-59
2022/02/11 12:32:56;;;;;;;13.28;7.67;;;;;;;8.58;59.07;100495.42;1805425;77;21046;-64
2022/02/11 12:35:34;;;;;;;11.95;7.00;;;;;;;8.62;58.56;100505.57;1811719;78;21042;-69
2022/02/11 12:38:02;;;;;;;13.85;7.72;;;;;;;8.57;58.01;100498.50;1806364;77;21135;-65
2022/02/11 12:40:32;;;;;;;11.88;6.62;;;;;;;8.53;57.37;100507.06;1783314;78;21061;-69
2022/02/11 12:43:04;;;;;;;12.33;6.85;;;;;;;8.53;57.37;100502.30;1784908;78;21121;-62
2022/02/11 12:45:40;;;;;;;11.80;6.80;;;;;;;8.52;57.66;100510.64;1752631;79;21128;-66
2022/02/11 12:48:13;;;;;;;;;;;;;;;8.50;56.92;100501.19;1798417;78;21128;-65
2022/02/11 12:50:45;;;;;;;14.83;7.15;;;;;;;8.49;56.48;100491.63;1807762;78;21181;-63
2022/02/11 12:53:16;;;;;;;9.43;5.97;;;;;;;8.43;56.83;100502.57;1802297;77;21057;-63
2022/02/11 12:55:45;;;;;;;11.80;6.67;;;;;;;8.41;56.69;100504.44;1805220;77;21544;-65
2022/02/11 12:58:13;;;;;;;10.63;6.03;;;;;;;8.39;56.50;100503.23;1801527;78;21046;-66
2022/02/11 13:00:42;;;;;;;11.38;6.78;;;;;;;8.41;56.54;100503.12;1786560;78;21046;-64
2022/02/11 13:03:12;;;;;;;12.68;7.08;;;;;;;8.44;56.54;100504.23;1783083;78;21049;-62
2022/02/11 13:05:44;;;;;;;14.18;8.98;;;;;;;8.47;56.30;100511.89;1806316;77;21502;-66
2022/02/11 13:08:28;;;;;;;11.03;6.33;;;;;;;8.52;56.23;100504.54;1783295;78;21058;-64
2022/02/11 13:10:57;;;;;;;13.55;6.33;;;;;;;8.66;56.00;100502.29;1812126;77;21320;-65
2022/02/11 13:13:24;;;;;;;10.40;5.72;;;;;;;8.82;55.64;100500.23;1816722;77;21038;-64
2022/02/11 13:15:53;;;;;;;11.57;6.85;;;;;;;8.98;54.86;100501.31;1816885;77;21100;-68
2022/02/11 13:18:22;;;;;;;9.73;6.47;;;;;;;9.27;54.58;100493.95;1793698;78;21018;-65
2022/02/11 13:20:55;;;;;;;12.43;6.50;;;;;;;9.25;54.31;100500.28;1805919;77;21375;-61
2022/02/11 13:23:24;;;;;;;14.90;5.25;;;;;;;9.34;53.96;100502.22;1810966;77;21113;-61
2022/02/11 13:25:51;;;;;;;9.60;5.72;;;;;;;9.27;52.96;100500.52;1778298;78;21101;-63
2022/02/11 13:28:19;;;;;;;7.58;4.40;;;;;;;9.37;52.76;100506.42;1784035;78;21119;-64
2022/02/11 13:31:01;;;;;;;8.05;4.67;;;;;;;9.38;52.99;100511.56;1810985;78;21588;-63
2022/02/11 13:33:33;;;;;;;8.30;4.87;;;;;;;10.75;51.51;100511.73;1774540;78;21364;-61
2022/02/11 13:36:11;;;;;;;9.20;4.67;;;;;;;12.25;47.84;100510.12;1785636;78;21071;-64
2022/02/11 13:38:44;;;;;;;11.12;4.95;;;;;;;13.13;45.42;100512.62;1788312;77;21061;-61
2022/02/11 13:41:12;;;;;;;9.13;4.62;;;;;;;13.23;43.76;100516.61;1808622;77;21681;-66
2022/02/11 13:43:58;;;;;;;7.97;4.50;;;;;;;13.84;42.18;100522.64;1785677;78;21092;-67
2022/02/11 13:46:35;;;;;;;6.70;3.60;;;;;;;14.20;41.83;100526.31;1812525;78;21092;-65
2022/02/11 13:49:07;;;;;;;6.30;3.35;;;;;;;14.39;40.40;100520.62;1810354;78;21680;-69
2022/02/11 13:51:35;;;;;;;7.58;4.33;;;;;;;13.87;41.44;100529.80;1814178;77;21043;-69
2022/02/11 13:54:17;;;;;;;6.67;3.27;;;;;;;13.30;41.57;100519.53;1807891;77;21146;-67
2022/02/11 13:56:48;;;;;;;8.03;3.77;;;;;;;12.62;42.65;100524.13;1806396;78;21054;-67
2022/02/11 13:59:27;;;;;;;6.58;3.55;;;;;;;12.36;43.46;100523.25;1778219;78;21033;-62
2022/02/11 14:02:05;;;;;;;8.58;3.70;;;;;;;12.64;43.36;100524.82;1783598;79;21045;-61
2022/02/11 14:04:33;;;;;;;6.67;3.20;;;;;;;12.78;42.75;100521.01;1772163;79;21444;-63
2022/02/11 14:07:01;;;;;;;10.10;3.77;;;;;;;13.06;42.34;100524.67;1797618;77;21120;-64
2022/02/11 14:09:32;;;;;;;7.95;4.75;;;;;;;13.49;41.13;100523.53;1770554;79;21113;-65
2022/02/11 14:11:59;;;;;;;9.63;5.22;;;;;;;13.83;40.47;100528.39;1801319;78;22208;-63
2022/02/11 14:14:26;;;;;;;7.95;4.58;;;;;;;14.11;40.10;100527.19;1802953;77;21102;-63
2022/02/11 14:16:55;;;;;;;9.03;4.50;;;;;;;14.03;40.23;100537.64;1804105;78;21124;-62
2022/02/11 14:19:25;;;;;;;8.05;4.72;;;;;;;13.78;40.54;100535.91;1772395;79;21073;-62
2022/02/11 14:21:58;;;;;;;8.38;5.05;;;;;;;13.66;41.07;100538.36;1804651;77;21048;-62
2022/02/11 14:24:26;;;;;;;10.43;4.70;;;;;;;13.55;41.45;100542.81;1775255;79;21023;-63
2022/02/11 14:26:53;;;;;;;6.83;4.12;;;;;;;13.20;41.89;100552.55;1779886;78;21046;-64
2022/02/11 14:29:20;;;;;;;9.00;4.53;;;;;;;12.74;42.78;100552.59;1802552;77;21120;-61
2022/02/11 14:31:47;;;;;;;6.60;3.83;;;;;;;12.53;43.12;100553.47;1772250;78;21561;-60
2022/02/11 14:34:14;;;;;;;8.68;4.00;;;;;;;12.50;43.16;100556.86;1791630;78;21641;-63
2022/02/11 14:36:42;;;;;;;6.60;3.50;;;;;;;12.51;43.15;100551.92;1786504;78;21033;-62
2022/02/11 14:39:13;;;;;;;7.03;3.45;;;;;;;12.59;42.69;100550.32;1788517;78;21127;-62
2022/02/11 14:41:48;;;;;;;7.60;3.80;;;;;;;12.45;42.88;100556.75;1792602;78;21524;-63
2022/02/11 14:44:24;;;;;;;6.67;3.33;;;;;;;12.31;43.00;100567.66;1789209;78;21067;-64
2022/02/11 14:46:55;;;;;;;7.42;3.30;;;;;;;11.93;43.49;100567.73;1792067;78;21608;-63
2022/02/11 14:49:22;;;;;;;6.97;3.00;;;;;;;11.55;44.17;100573.48;1762377;79;21053;-59
2022/02/11 14:51:55;;;;;;;7.10;3.10;;;;;;;11.17;44.87;100579.56;1789645;78;21052;-69
2022/02/11 14:54:22;;;;;;;7.17;2.70;;;;;;;10.88;45.51;100581.88;1776458;78;20963;-62
2022/02/11 14:56:54;;;;;;;7.53;3.37;;;;;;;10.62;46.25;100589.97;1769105;78;22507;-63
2022/02/11 14:59:19;;;;;;;5.70;2.60;;;;;;;10.37;46.90;100589.23;1757558;78;21141;-62
2022/02/11 15:01:47;;;;;;;7.42;3.65;;;;;;;10.09;47.64;100591.75;1771881;79;22320;-64
2022/02/11 15:04:15;;;;;;;6.35;3.17;;;;;;;9.82;48.13;100598.09;1773668;79;21058;-64
2022/02/11 15:06:43;;;;;;;5.72;2.72;;;;;;;9.57;48.28;100600.84;1778458;79;21011;-65
2022/02/11 15:09:10;;;;;;;6.80;3.45;;;;;;;9.33;48.46;100608.23;1770931;79;21140;-62
2022/02/11 15:11:36;;;;;;;8.55;3.37;;;;;;;9.13;48.88;100612.27;1778774;80;21195;-64
2022/02/11 15:14:03;;;;;;;7.90;3.52;;;;;;;8.95;49.17;100609.13;1772338;78;21061;-68
2022/02/11 15:16:31;;;;;;;8.08;3.87;;;;;;;8.80;49.59;100604.95;1773012;79;21046;-66
2022/02/11 15:19:00;;;;;;;6.47;3.12;;;;;;;8.66;49.95;100613.30;1751618;80;21054;-66
2022/02/11 15:21:27;;;;;;;9.88;4.20;;;;;;;8.52;50.40;100617.31;1772464;79;21134;-65
2022/02/11 15:23:53;;;;;;;7.00;3.45;;;;;;;8.40;50.78;100631.23;1771513;79;21556;-59
2022/02/11 15:26:20;;;;;;;5.65;2.92;;;;;;;8.27;51.08;100618.95;1749610;80;21591;-60
2022/02/11 15:28:47;;;;;;;6.70;2.85;;;;;;;8.21;51.58;100628.52;1744317;80;21486;-60
2022/02/11 15:31:13;;;;;;;6.83;2.70;;;;;;;8.14;51.64;100631.19;1774826;79;21123;-59
2022/02/11 15:33:42;;;;;;;8.25;3.30;;;;;;;8.09;51.83;100631.97;1768022;79;21086;-59
2022/02/11 15:36:10;;;;;;;6.58;2.72;;;;;;;8.03;52.01;100638.42;1771639;79;21493;-61
2022/02/11 15:38:36;;;;;;;5.45;2.77;;;;;;;7.98;52.20;100638.75;1764527;79;21009;-61
2022/02/11 15:41:06;;;;;;;5.15;2.83;;;;;;;7.94;52.30;100645.59;1749352;79;21180;-59
2022/02/11 15:43:34;;;;;;;6.17;2.75;;;;;;;7.88;52.44;100644.19;1767886;79;21117;-60